sensor_id;sensor_type;location;lat;lon;timestamp;P1;durP1;ratioP1;P2;durP2;ratioP2
50900;SDS011;36879;51.416;6.678;2022-10-22T00:00:50;15.88;;;8.65;;
50900;SDS011;36879;51.416;6.678;2022-10-22T00:03:16;14.23;;;8.27;;
50900;SDS011;36879;51.416;6.678;2022-10-22T00:05:42;13.88;;;7.43;;
50900;SDS011;36879;51.416;6.678;2022-10-22T00:08:08;10.43;;;7.07;;
50900;SDS011;36879;51.416;6.678;2022-10-22T00:10:36;11.05;;;6.60;;
50900;SDS011;36879;51.416;6.678;2022-10-22T00:13:02;12.55;;;6.50;;
50900;SDS011;36879;51.416;6.678;2022-10-22T00:15:28;14.73;;;6.45;;
50900;SDS011;36879;51.416;6.678;2022-10-22T00:17:54;9.57;;;5.05;;
50900;SDS011;36879;51.416;6.678;2022-10-22T00:20:20;10.13;;;5.88;;
50900;SDS011;36879;51.416;6.678;2022-10-22T00:22:46;11.63;;;5.97;;
50900;SDS011;36879;51.416;6.678;2022-10-22T00:25:12;10.95;;;6.55;;
50900;SDS011;36879;51.416;6.678;2022-10-22T00:27:38;7.55;;;5.15;;
50900;SDS011;36879;51.416;6.678;2022-10-22T00:30:05;8.45;;;6.18;;
50900;SDS011;36879;51.416;6.678;2022-10-22T00:32:31;8.13;;;5.70;;
50900;SDS011;36879;51.416;6.678;2022-10-22T00:34:57;10.55;;;6.07;;
50900;SDS011;36879;51.416;6.678;2022-10-22T00:37:23;9.50;;;6.97;;
50900;SDS011;36879;51.416;6.678;2022-10-22T00:39:49;12.77;;;6.65;;
50900;SDS011;36879;51.416;6.678;2022-10-22T00:42:16;14.02;;;6.82;;
50900;SDS011;36879;51.416;6.678;2022-10-22T00:47:38;12.37;;;6.63;;
50900;SDS011;36879;51.416;6.678;2022-10-22T00:50:06;13.50;;;6.95;;
50900;SDS011;36879;51.416;6.678;2022-10-22T00:52:34;13.98;;;6.55;;
50900;SDS011;36879;51.416;6.678;2022-10-22T00:55:00;9.35;;;5.40;;
50900;SDS011;36879;51.416;6.678;2022-10-22T00:57:26;12.05;;;6.40;;
50900;SDS011;36879;51.416;6.678;2022-10-22T00:59:52;9.75;;;6.28;;
50900;SDS011;36879;51.416;6.678;2022-10-22T01:02:19;13.70;;;6.60;;
50900;SDS011;36879;51.416;6.678;2022-10-22T01:04:45;15.38;;;6.72;;
50900;SDS011;36879;51.416;6.678;2022-10-22T01:07:14;12.35;;;6.38;;
50900;SDS011;36879;51.416;6.678;2022-10-22T01:17:29;18.15;;;10.00;;
50900;SDS011;36879;51.416;6.678;2022-10-22T01:27:20;16.75;;;9.82;;
50900;SDS011;36879;51.416;6.678;2022-10-22T01:29:52;18.90;;;9.88;;
50900;SDS011;36879;51.416;6.678;2022-10-22T01:32:21;19.55;;;9.27;;
50900;SDS011;36879;51.416;6.678;2022-10-22T01:34:49;17.25;;;8.90;;
50900;SDS011;36879;51.416;6.678;2022-10-22T01:37:15;15.40;;;9.50;;
50900;SDS011;36879;51.416;6.678;2022-10-22T01:39:43;14.00;;;8.90;;
50900;SDS011;36879;51.416;6.678;2022-10-22T01:42:11;17.60;;;10.18;;
50900;SDS011;36879;51.416;6.678;2022-10-22T01:44:38;17.02;;;8.98;;
50900;SDS011;36879;51.416;6.678;2022-10-22T01:52:18;18.80;;;10.35;;
50900;SDS011;36879;51.416;6.678;2022-10-22T01:57:32;18.35;;;9.95;;
50900;SDS011;36879;51.416;6.678;2022-10-22T02:00:03;15.98;;;9.80;;
50900;SDS011;36879;51.416;6.678;2022-10-22T02:02:41;18.85;;;11.52;;
50900;SDS011;36879;51.416;6.678;2022-10-22T02:07:37;18.15;;;9.68;;
50900;SDS011;36879;51.416;6.678;2022-10-22T02:10:05;18.58;;;11.20;;
50900;SDS011;36879;51.416;6.678;2022-10-22T02:12:33;20.90;;;11.40;;
50900;SDS011;36879;51.416;6.678;2022-10-22T02:15:00;18.42;;;10.65;;
50900;SDS011;36879;51.416;6.678;2022-10-22T02:17:27;18.88;;;10.60;;
50900;SDS011;36879;51.416;6.678;2022-10-22T02:19:55;21.65;;;10.48;;
50900;SDS011;36879;51.416;6.678;2022-10-22T02:22:21;23.33;;;12.30;;
50900;SDS011;36879;51.416;6.678;2022-10-22T02:24:48;21.77;;;11.27;;
50900;SDS011;36879;51.416;6.678;2022-10-22T02:27:19;30.25;;;12.02;;
50900;SDS011;36879;51.416;6.678;2022-10-22T02:29:48;18.75;;;11.90;;
50900;SDS011;36879;51.416;6.678;2022-10-22T02:32:18;16.92;;;11.13;;
50900;SDS011;36879;51.416;6.678;2022-10-22T02:34:44;19.65;;;10.48;;
50900;SDS011;36879;51.416;6.678;2022-10-22T02:37:11;18.70;;;10.05;;
50900;SDS011;36879;51.416;6.678;2022-10-22T02:39:38;15.15;;;8.07;;
50900;SDS011;36879;51.416;6.678;2022-10-22T02:42:04;19.85;;;8.48;;
50900;SDS011;36879;51.416;6.678;2022-10-22T02:44:30;16.35;;;8.18;;
50900;SDS011;36879;51.416;6.678;2022-10-22T02:46:56;17.25;;;8.48;;
50900;SDS011;36879;51.416;6.678;2022-10-22T02:49:22;13.77;;;8.43;;
50900;SDS011;36879;51.416;6.678;2022-10-22T02:51:48;12.88;;;8.10;;
50900;SDS011;36879;51.416;6.678;2022-10-22T02:54:14;14.85;;;8.07;;
50900;SDS011;36879;51.416;6.678;2022-10-22T02:56:40;12.10;;;7.47;;
50900;SDS011;36879;51.416;6.678;2022-10-22T02:59:06;12.15;;;7.00;;
50900;SDS011;36879;51.416;6.678;2022-10-22T03:01:32;13.50;;;7.97;;
50900;SDS011;36879;51.416;6.678;2022-10-22T03:03:58;15.50;;;7.15;;
50900;SDS011;36879;51.416;6.678;2022-10-22T03:06:24;10.85;;;7.32;;
50900;SDS011;36879;51.416;6.678;2022-10-22T03:08:50;15.98;;;7.28;;
50900;SDS011;36879;51.416;6.678;2022-10-22T03:11:16;14.95;;;7.78;;
50900;SDS011;36879;51.416;6.678;2022-10-22T03:13:42;13.75;;;7.68;;
50900;SDS011;36879;51.416;6.678;2022-10-22T03:16:08;11.75;;;8.32;;
50900;SDS011;36879;51.416;6.678;2022-10-22T03:18:34;12.32;;;6.90;;
50900;SDS011;36879;51.416;6.678;2022-10-22T03:21:03;15.50;;;7.78;;
50900;SDS011;36879;51.416;6.678;2022-10-22T03:23:30;14.18;;;8.20;;
50900;SDS011;36879;51.416;6.678;2022-10-22T03:25:56;12.40;;;8.73;;
50900;SDS011;36879;51.416;6.678;2022-10-22T03:28:23;13.23;;;8.27;;
50900;SDS011;36879;51.416;6.678;2022-10-22T03:30:51;16.10;;;8.85;;
50900;SDS011;36879;51.416;6.678;2022-10-22T03:33:17;16.48;;;8.68;;
50900;SDS011;36879;51.416;6.678;2022-10-22T03:35:43;18.75;;;8.10;;
50900;SDS011;36879;51.416;6.678;2022-10-22T03:38:10;16.35;;;9.63;;
50900;SDS011;36879;51.416;6.678;2022-10-22T03:40:36;19.60;;;9.55;;
50900;SDS011;36879;51.416;6.678;2022-10-22T03:43:02;12.57;;;7.90;;
50900;SDS011;36879;51.416;6.678;2022-10-22T03:45:28;12.52;;;7.50;;
50900;SDS011;36879;51.416;6.678;2022-10-22T03:47:54;13.05;;;8.90;;
50900;SDS011;36879;51.416;6.678;2022-10-22T03:50:20;13.68;;;8.57;;
50900;SDS011;36879;51.416;6.678;2022-10-22T03:52:46;15.13;;;8.70;;
50900;SDS011;36879;51.416;6.678;2022-10-22T03:55:12;13.52;;;8.55;;
50900;SDS011;36879;51.416;6.678;2022-10-22T03:57:38;13.38;;;8.60;;
50900;SDS011;36879;51.416;6.678;2022-10-22T04:00:05;17.52;;;9.20;;
50900;SDS011;36879;51.416;6.678;2022-10-22T04:02:31;20.70;;;9.02;;
50900;SDS011;36879;51.416;6.678;2022-10-22T04:04:57;14.90;;;7.97;;
50900;SDS011;36879;51.416;6.678;2022-10-22T04:07:23;14.93;;;8.00;;
50900;SDS011;36879;51.416;6.678;2022-10-22T04:09:49;14.10;;;8.40;;
50900;SDS011;36879;51.416;6.678;2022-10-22T04:12:15;16.92;;;8.45;;
50900;SDS011;36879;51.416;6.678;2022-10-22T04:14:41;14.13;;;8.77;;
50900;SDS011;36879;51.416;6.678;2022-10-22T04:17:07;11.60;;;8.10;;
50900;SDS011;36879;51.416;6.678;2022-10-22T04:19:33;13.68;;;8.48;;
50900;SDS011;36879;51.416;6.678;2022-10-22T04:21:59;12.55;;;8.70;;
50900;SDS011;36879;51.416;6.678;2022-10-22T04:24:25;15.32;;;9.13;;
50900;SDS011;36879;51.416;6.678;2022-10-22T04:26:55;11.65;;;8.05;;
50900;SDS011;36879;51.416;6.678;2022-10-22T04:29:21;13.98;;;8.32;;
50900;SDS011;36879;51.416;6.678;2022-10-22T04:31:47;18.77;;;9.65;;
50900;SDS011;36879;51.416;6.678;2022-10-22T04:34:13;15.23;;;9.23;;
50900;SDS011;36879;51.416;6.678;2022-10-22T04:36:39;18.40;;;9.32;;
50900;SDS011;36879;51.416;6.678;2022-10-22T04:39:05;24.50;;;9.70;;
50900;SDS011;36879;51.416;6.678;2022-10-22T04:41:32;19.33;;;9.88;;
50900;SDS011;36879;51.416;6.678;2022-10-22T04:43:59;12.98;;;9.13;;
50900;SDS011;36879;51.416;6.678;2022-10-22T04:46:26;14.75;;;8.43;;
50900;SDS011;36879;51.416;6.678;2022-10-22T04:48:52;14.57;;;9.02;;
50900;SDS011;36879;51.416;6.678;2022-10-22T04:51:19;15.27;;;8.68;;
50900;SDS011;36879;51.416;6.678;2022-10-22T04:53:45;19.00;;;11.23;;
50900;SDS011;36879;51.416;6.678;2022-10-22T04:56:18;13.98;;;9.38;;
50900;SDS011;36879;51.416;6.678;2022-10-22T04:58:48;17.70;;;9.27;;
50900;SDS011;36879;51.416;6.678;2022-10-22T05:01:16;18.23;;;11.65;;
50900;SDS011;36879;51.416;6.678;2022-10-22T05:03:42;16.92;;;9.32;;
50900;SDS011;36879;51.416;6.678;2022-10-22T05:06:08;17.92;;;10.10;;
50900;SDS011;36879;51.416;6.678;2022-10-22T05:08:35;16.55;;;9.55;;
50900;SDS011;36879;51.416;6.678;2022-10-22T05:11:08;16.13;;;10.02;;
50900;SDS011;36879;51.416;6.678;2022-10-22T05:13:34;16.17;;;9.82;;
50900;SDS011;36879;51.416;6.678;2022-10-22T05:16:00;16.42;;;10.07;;
50900;SDS011;36879;51.416;6.678;2022-10-22T05:18:26;20.40;;;10.23;;
50900;SDS011;36879;51.416;6.678;2022-10-22T05:20:52;18.85;;;10.77;;
50900;SDS011;36879;51.416;6.678;2022-10-22T05:23:18;19.38;;;11.50;;
50900;SDS011;36879;51.416;6.678;2022-10-22T05:25:44;14.90;;;10.35;;
50900;SDS011;36879;51.416;6.678;2022-10-22T05:28:10;17.70;;;12.05;;
50900;SDS011;36879;51.416;6.678;2022-10-22T05:30:36;22.65;;;11.00;;
50900;SDS011;36879;51.416;6.678;2022-10-22T05:33:02;18.27;;;10.68;;
50900;SDS011;36879;51.416;6.678;2022-10-22T05:35:28;16.90;;;10.75;;
50900;SDS011;36879;51.416;6.678;2022-10-22T05:37:54;20.90;;;12.27;;
50900;SDS011;36879;51.416;6.678;2022-10-22T05:40:20;24.48;;;12.82;;
50900;SDS011;36879;51.416;6.678;2022-10-22T05:42:46;22.25;;;12.65;;
50900;SDS011;36879;51.416;6.678;2022-10-22T05:45:12;22.10;;;12.07;;
50900;SDS011;36879;51.416;6.678;2022-10-22T05:47:38;16.40;;;11.20;;
50900;SDS011;36879;51.416;6.678;2022-10-22T05:50:04;21.63;;;12.65;;
50900;SDS011;36879;51.416;6.678;2022-10-22T05:52:30;22.63;;;11.75;;
50900;SDS011;36879;51.416;6.678;2022-10-22T05:54:56;19.20;;;12.07;;
50900;SDS011;36879;51.416;6.678;2022-10-22T05:57:22;28.13;;;13.98;;
50900;SDS011;36879;51.416;6.678;2022-10-22T05:59:48;25.27;;;13.82;;
50900;SDS011;36879;51.416;6.678;2022-10-22T06:02:14;21.15;;;12.55;;
50900;SDS011;36879;51.416;6.678;2022-10-22T06:04:40;21.85;;;13.00;;
50900;SDS011;36879;51.416;6.678;2022-10-22T06:07:07;20.05;;;13.25;;
50900;SDS011;36879;51.416;6.678;2022-10-22T06:09:34;22.05;;;11.45;;
50900;SDS011;36879;51.416;6.678;2022-10-22T06:12:00;17.58;;;11.48;;
50900;SDS011;36879;51.416;6.678;2022-10-22T06:14:27;25.95;;;12.20;;
50900;SDS011;36879;51.416;6.678;2022-10-22T06:16:53;21.13;;;11.63;;
50900;SDS011;36879;51.416;6.678;2022-10-22T06:19:21;23.95;;;12.30;;
50900;SDS011;36879;51.416;6.678;2022-10-22T06:21:47;24.52;;;12.15;;
50900;SDS011;36879;51.416;6.678;2022-10-22T06:24:13;21.95;;;12.40;;
50900;SDS011;36879;51.416;6.678;2022-10-22T06:26:40;18.75;;;11.38;;
50900;SDS011;36879;51.416;6.678;2022-10-22T06:29:06;18.50;;;11.35;;
50900;SDS011;36879;51.416;6.678;2022-10-22T06:31:32;26.38;;;12.13;;
50900;SDS011;36879;51.416;6.678;2022-10-22T06:34:04;19.23;;;11.15;;
50900;SDS011;36879;51.416;6.678;2022-10-22T06:36:31;22.73;;;11.90;;
50900;SDS011;36879;51.416;6.678;2022-10-22T06:38:57;17.40;;;12.35;;
50900;SDS011;36879;51.416;6.678;2022-10-22T06:41:23;21.92;;;11.85;;
50900;SDS011;36879;51.416;6.678;2022-10-22T06:43:49;21.52;;;11.43;;
50900;SDS011;36879;51.416;6.678;2022-10-22T06:46:16;20.58;;;11.38;;
50900;SDS011;36879;51.416;6.678;2022-10-22T06:48:43;27.48;;;11.60;;
50900;SDS011;36879;51.416;6.678;2022-10-22T06:51:12;18.45;;;11.02;;
50900;SDS011;36879;51.416;6.678;2022-10-22T06:53:39;17.30;;;10.60;;
50900;SDS011;36879;51.416;6.678;2022-10-22T06:56:08;19.85;;;10.60;;
50900;SDS011;36879;51.416;6.678;2022-10-22T06:58:35;15.07;;;8.90;;
50900;SDS011;36879;51.416;6.678;2022-10-22T07:01:04;11.35;;;7.47;;
50900;SDS011;36879;51.416;6.678;2022-10-22T07:03:31;13.52;;;6.63;;
50900;SDS011;36879;51.416;6.678;2022-10-22T07:06:00;10.38;;;5.50;;
50900;SDS011;36879;51.416;6.678;2022-10-22T07:08:26;11.32;;;4.50;;
50900;SDS011;36879;51.416;6.678;2022-10-22T07:10:52;7.10;;;4.13;;
50900;SDS011;36879;51.416;6.678;2022-10-22T07:13:18;11.70;;;4.93;;
50900;SDS011;36879;51.416;6.678;2022-10-22T07:15:45;11.40;;;4.03;;
50900;SDS011;36879;51.416;6.678;2022-10-22T07:18:11;13.77;;;3.47;;
50900;SDS011;36879;51.416;6.678;2022-10-22T07:20:37;7.82;;;3.03;;
50900;SDS011;36879;51.416;6.678;2022-10-22T07:23:03;7.55;;;3.95;;
50900;SDS011;36879;51.416;6.678;2022-10-22T07:25:29;9.40;;;3.10;;
50900;SDS011;36879;51.416;6.678;2022-10-22T07:27:55;11.63;;;3.10;;
50900;SDS011;36879;51.416;6.678;2022-10-22T07:30:21;12.50;;;3.78;;
50900;SDS011;36879;51.416;6.678;2022-10-22T07:32:46;8.98;;;2.97;;
50900;SDS011;36879;51.416;6.678;2022-10-22T07:35:12;6.05;;;2.75;;
50900;SDS011;36879;51.416;6.678;2022-10-22T07:37:38;8.93;;;2.88;;
50900;SDS011;36879;51.416;6.678;2022-10-22T07:40:05;5.65;;;1.95;;
50900;SDS011;36879;51.416;6.678;2022-10-22T07:42:31;5.50;;;1.85;;
50900;SDS011;36879;51.416;6.678;2022-10-22T07:44:57;6.57;;;2.25;;
50900;SDS011;36879;51.416;6.678;2022-10-22T07:47:23;8.85;;;2.63;;
50900;SDS011;36879;51.416;6.678;2022-10-22T07:49:48;5.50;;;2.40;;
50900;SDS011;36879;51.416;6.678;2022-10-22T07:52:14;7.18;;;2.92;;
50900;SDS011;36879;51.416;6.678;2022-10-22T07:54:40;7.97;;;2.58;;
50900;SDS011;36879;51.416;6.678;2022-10-22T07:57:06;12.05;;;3.53;;
50900;SDS011;36879;51.416;6.678;2022-10-22T07:59:32;5.50;;;1.90;;
50900;SDS011;36879;51.416;6.678;2022-10-22T08:01:58;7.20;;;2.17;;
50900;SDS011;36879;51.416;6.678;2022-10-22T08:04:24;4.22;;;1.77;;
50900;SDS011;36879;51.416;6.678;2022-10-22T08:06:50;4.88;;;2.05;;
50900;SDS011;36879;51.416;6.678;2022-10-22T08:09:16;8.07;;;2.40;;
50900;SDS011;36879;51.416;6.678;2022-10-22T08:11:42;5.82;;;2.53;;
50900;SDS011;36879;51.416;6.678;2022-10-22T08:14:09;8.75;;;2.22;;
50900;SDS011;36879;51.416;6.678;2022-10-22T08:16:35;7.63;;;2.75;;
50900;SDS011;36879;51.416;6.678;2022-10-22T08:19:01;10.57;;;1.80;;
50900;SDS011;36879;51.416;6.678;2022-10-22T08:21:28;8.02;;;2.30;;
50900;SDS011;36879;51.416;6.678;2022-10-22T08:23:54;6.03;;;2.33;;
50900;SDS011;36879;51.416;6.678;2022-10-22T08:26:20;7.80;;;1.95;;
50900;SDS011;36879;51.416;6.678;2022-10-22T08:28:46;12.85;;;2.53;;
50900;SDS011;36879;51.416;6.678;2022-10-22T08:31:12;5.40;;;1.80;;
50900;SDS011;36879;51.416;6.678;2022-10-22T08:33:38;5.68;;;1.80;;
50900;SDS011;36879;51.416;6.678;2022-10-22T08:36:05;4.70;;;1.98;;
50900;SDS011;36879;51.416;6.678;2022-10-22T08:38:31;10.20;;;2.25;;
50900;SDS011;36879;51.416;6.678;2022-10-22T08:41:05;7.55;;;2.10;;
50900;SDS011;36879;51.416;6.678;2022-10-22T08:43:36;6.13;;;2.67;;
50900;SDS011;36879;51.416;6.678;2022-10-22T08:46:12;10.52;;;2.53;;
50900;SDS011;36879;51.416;6.678;2022-10-22T08:51:35;13.38;;;2.58;;
50900;SDS011;36879;51.416;6.678;2022-10-22T08:54:07;4.82;;;2.20;;
50900;SDS011;36879;51.416;6.678;2022-10-22T08:56:38;3.38;;;1.80;;
50900;SDS011;36879;51.416;6.678;2022-10-22T08:59:13;5.45;;;1.80;;
50900;SDS011;36879;51.416;6.678;2022-10-22T09:01:43;7.78;;;2.17;;
50900;SDS011;36879;51.416;6.678;2022-10-22T09:04:13;12.68;;;2.25;;
50900;SDS011;36879;51.416;6.678;2022-10-22T09:06:41;4.63;;;1.52;;
50900;SDS011;36879;51.416;6.678;2022-10-22T09:09:12;7.00;;;1.90;;
50900;SDS011;36879;51.416;6.678;2022-10-22T09:11:41;7.32;;;1.50;;
50900;SDS011;36879;51.416;6.678;2022-10-22T09:14:09;8.43;;;2.15;;
50900;SDS011;36879;51.416;6.678;2022-10-22T09:16:42;7.50;;;1.80;;
50900;SDS011;36879;51.416;6.678;2022-10-22T09:24:52;2.55;;;1.13;;
50900;SDS011;36879;51.416;6.678;2022-10-22T09:27:25;8.27;;;2.30;;
50900;SDS011;36879;51.416;6.678;2022-10-22T09:29:51;10.18;;;2.28;;
50900;SDS011;36879;51.416;6.678;2022-10-22T09:32:17;3.67;;;1.23;;
50900;SDS011;36879;51.416;6.678;2022-10-22T09:34:44;4.20;;;1.50;;
50900;SDS011;36879;51.416;6.678;2022-10-22T09:37:10;4.30;;;1.52;;
50900;SDS011;36879;51.416;6.678;2022-10-22T09:39:38;4.20;;;1.85;;
50900;SDS011;36879;51.416;6.678;2022-10-22T09:42:05;6.32;;;1.60;;
50900;SDS011;36879;51.416;6.678;2022-10-22T09:44:34;6.22;;;1.77;;
50900;SDS011;36879;51.416;6.678;2022-10-22T09:47:05;5.82;;;1.48;;
50900;SDS011;36879;51.416;6.678;2022-10-22T09:49:32;6.13;;;1.75;;
50900;SDS011;36879;51.416;6.678;2022-10-22T09:51:59;4.63;;;1.13;;
50900;SDS011;36879;51.416;6.678;2022-10-22T09:57:13;9.20;;;1.25;;
50900;SDS011;36879;51.416;6.678;2022-10-22T09:59:46;8.48;;;1.77;;
50900;SDS011;36879;51.416;6.678;2022-10-22T10:02:14;5.97;;;1.42;;
50900;SDS011;36879;51.416;6.678;2022-10-22T10:04:41;6.45;;;1.38;;
50900;SDS011;36879;51.416;6.678;2022-10-22T10:09:42;5.80;;;1.10;;
50900;SDS011;36879;51.416;6.678;2022-10-22T10:12:14;9.40;;;1.92;;
50900;SDS011;36879;51.416;6.678;2022-10-22T10:14:47;4.15;;;1.40;;
50900;SDS011;36879;51.416;6.678;2022-10-22T10:18:20;6.30;;;1.85;;
50900;SDS011;36879;51.416;6.678;2022-10-22T10:23:24;4.53;;;1.13;;
50900;SDS011;36879;51.416;6.678;2022-10-22T10:31:15;1.80;;;0.93;;
50900;SDS011;36879;51.416;6.678;2022-10-22T10:36:26;5.95;;;1.55;;
50900;SDS011;36879;51.416;6.678;2022-10-22T10:39:10;9.57;;;2.15;;
50900;SDS011;36879;51.416;6.678;2022-10-22T10:41:41;2.33;;;0.90;;
50900;SDS011;36879;51.416;6.678;2022-10-22T10:44:15;6.82;;;1.60;;
50900;SDS011;36879;51.416;6.678;2022-10-22T10:49:18;5.13;;;1.02;;
50900;SDS011;36879;51.416;6.678;2022-10-22T10:56:55;6.65;;;1.88;;
50900;SDS011;36879;51.416;6.678;2022-10-22T10:59:38;5.95;;;1.38;;
50900;SDS011;36879;51.416;6.678;2022-10-22T11:07:03;9.50;;;1.63;;
50900;SDS011;36879;51.416;6.678;2022-10-22T11:09:34;3.40;;;1.05;;
50900;SDS011;36879;51.416;6.678;2022-10-22T11:12:07;1.63;;;0.82;;
50900;SDS011;36879;51.416;6.678;2022-10-22T11:17:25;4.95;;;1.17;;
50900;SDS011;36879;51.416;6.678;2022-10-22T11:20:12;6.82;;;1.20;;
50900;SDS011;36879;51.416;6.678;2022-10-22T11:23:22;4.63;;;1.40;;
50900;SDS011;36879;51.416;6.678;2022-10-22T11:25:37;4.43;;;0.82;;
50900;SDS011;36879;51.416;6.678;2022-10-22T11:30:35;4.20;;;0.90;;
50900;SDS011;36879;51.416;6.678;2022-10-22T11:33:03;6.05;;;1.50;;
50900;SDS011;36879;51.416;6.678;2022-10-22T11:35:30;2.92;;;1.15;;
50900;SDS011;36879;51.416;6.678;2022-10-22T11:37:57;6.10;;;1.10;;
50900;SDS011;36879;51.416;6.678;2022-10-22T11:42:54;2.45;;;0.98;;
50900;SDS011;36879;51.416;6.678;2022-10-22T11:53:19;5.95;;;1.15;;
50900;SDS011;36879;51.416;6.678;2022-10-22T11:55:47;4.07;;;0.82;;
50900;SDS011;36879;51.416;6.678;2022-10-22T12:16:23;3.90;;;1.20;;
50900;SDS011;36879;51.416;6.678;2022-10-22T12:18:52;4.22;;;1.08;;
50900;SDS011;36879;51.416;6.678;2022-10-22T12:21:20;4.57;;;1.80;;
50900;SDS011;36879;51.416;6.678;2022-10-22T12:23:46;4.70;;;0.98;;
50900;SDS011;36879;51.416;6.678;2022-10-22T12:26:23;3.53;;;0.90;;
50900;SDS011;36879;51.416;6.678;2022-10-22T12:28:50;10.60;;;1.40;;
50900;SDS011;36879;51.416;6.678;2022-10-22T12:31:16;5.80;;;1.17;;
50900;SDS011;36879;51.416;6.678;2022-10-22T12:33:42;4.68;;;1.33;;
50900;SDS011;36879;51.416;6.678;2022-10-22T12:36:15;3.10;;;0.73;;
50900;SDS011;36879;51.416;6.678;2022-10-22T12:38:44;4.15;;;1.00;;
50900;SDS011;36879;51.416;6.678;2022-10-22T12:41:11;2.95;;;0.70;;
50900;SDS011;36879;51.416;6.678;2022-10-22T12:43:37;2.40;;;1.02;;
50900;SDS011;36879;51.416;6.678;2022-10-22T12:46:12;4.57;;;0.90;;
50900;SDS011;36879;51.416;6.678;2022-10-22T12:48:41;3.45;;;0.60;;
50900;SDS011;36879;51.416;6.678;2022-10-22T12:51:07;3.42;;;0.80;;
50900;SDS011;36879;51.416;6.678;2022-10-22T12:53:37;4.25;;;0.98;;
50900;SDS011;36879;51.416;6.678;2022-10-22T12:56:09;4.75;;;1.02;;
50900;SDS011;36879;51.416;6.678;2022-10-22T12:58:43;6.93;;;1.25;;
50900;SDS011;36879;51.416;6.678;2022-10-22T13:01:10;5.90;;;1.17;;
50900;SDS011;36879;51.416;6.678;2022-10-22T13:03:41;2.78;;;0.95;;
50900;SDS011;36879;51.416;6.678;2022-10-22T13:06:19;3.90;;;1.17;;
50900;SDS011;36879;51.416;6.678;2022-10-22T13:09:02;4.63;;;1.00;;
50900;SDS011;36879;51.416;6.678;2022-10-22T13:11:40;6.43;;;1.65;;
50900;SDS011;36879;51.416;6.678;2022-10-22T13:22:21;8.17;;;1.27;;
50900;SDS011;36879;51.416;6.678;2022-10-22T13:24:48;4.18;;;1.15;;
50900;SDS011;36879;51.416;6.678;2022-10-22T13:27:15;2.47;;;1.05;;
50900;SDS011;36879;51.416;6.678;2022-10-22T13:29:41;1.38;;;0.70;;
50900;SDS011;36879;51.416;6.678;2022-10-22T13:32:41;2.35;;;0.75;;
50900;SDS011;36879;51.416;6.678;2022-10-22T13:35:00;4.13;;;0.90;;
50900;SDS011;36879;51.416;6.678;2022-10-22T13:37:27;4.03;;;1.17;;
50900;SDS011;36879;51.416;6.678;2022-10-22T13:39:54;4.60;;;0.73;;
50900;SDS011;36879;51.416;6.678;2022-10-22T13:42:20;3.13;;;0.88;;
50900;SDS011;36879;51.416;6.678;2022-10-22T13:44:46;8.90;;;1.20;;
50900;SDS011;36879;51.416;6.678;2022-10-22T13:47:20;6.88;;;1.75;;
50900;SDS011;36879;51.416;6.678;2022-10-22T13:49:49;3.88;;;1.02;;
50900;SDS011;36879;51.416;6.678;2022-10-22T13:52:17;4.53;;;0.90;;
50900;SDS011;36879;51.416;6.678;2022-10-22T13:54:47;2.38;;;0.93;;
50900;SDS011;36879;51.416;6.678;2022-10-22T13:57:13;4.13;;;1.35;;
50900;SDS011;36879;51.416;6.678;2022-10-22T13:59:39;5.97;;;1.00;;
50900;SDS011;36879;51.416;6.678;2022-10-22T14:02:08;6.88;;;0.95;;
50900;SDS011;36879;51.416;6.678;2022-10-22T14:04:35;3.47;;;1.13;;
50900;SDS011;36879;51.416;6.678;2022-10-22T14:07:04;6.85;;;1.20;;
50900;SDS011;36879;51.416;6.678;2022-10-22T14:09:33;4.45;;;1.13;;
50900;SDS011;36879;51.416;6.678;2022-10-22T14:11:59;5.32;;;1.10;;
50900;SDS011;36879;51.416;6.678;2022-10-22T14:14:25;5.97;;;1.10;;
50900;SDS011;36879;51.416;6.678;2022-10-22T14:16:51;3.05;;;0.90;;
50900;SDS011;36879;51.416;6.678;2022-10-22T14:19:18;2.97;;;1.10;;
50900;SDS011;36879;51.416;6.678;2022-10-22T14:21:44;2.85;;;1.20;;
50900;SDS011;36879;51.416;6.678;2022-10-22T14:24:10;2.67;;;1.13;;
50900;SDS011;36879;51.416;6.678;2022-10-22T14:26:36;3.53;;;1.25;;
50900;SDS011;36879;51.416;6.678;2022-10-22T14:29:02;4.80;;;1.20;;
50900;SDS011;36879;51.416;6.678;2022-10-22T14:31:28;4.80;;;1.23;;
50900;SDS011;36879;51.416;6.678;2022-10-22T14:33:54;3.88;;;1.67;;
50900;SDS011;36879;51.416;6.678;2022-10-22T14:36:20;2.63;;;0.90;;
50900;SDS011;36879;51.416;6.678;2022-10-22T14:38:46;4.18;;;1.08;;
50900;SDS011;36879;51.416;6.678;2022-10-22T14:41:19;4.00;;;1.35;;
50900;SDS011;36879;51.416;6.678;2022-10-22T14:43:46;4.65;;;1.17;;
50900;SDS011;36879;51.416;6.678;2022-10-22T14:46:12;3.03;;;1.05;;
50900;SDS011;36879;51.416;6.678;2022-10-22T14:48:39;4.38;;;0.95;;
50900;SDS011;36879;51.416;6.678;2022-10-22T14:51:05;2.50;;;0.93;;
50900;SDS011;36879;51.416;6.678;2022-10-22T14:53:32;4.55;;;0.80;;
50900;SDS011;36879;51.416;6.678;2022-10-22T14:55:58;3.42;;;0.95;;
50900;SDS011;36879;51.416;6.678;2022-10-22T14:58:25;4.03;;;1.40;;
50900;SDS011;36879;51.416;6.678;2022-10-22T15:00:51;2.88;;;0.88;;
50900;SDS011;36879;51.416;6.678;2022-10-22T15:03:17;4.45;;;1.45;;
50900;SDS011;36879;51.416;6.678;2022-10-22T15:05:43;6.78;;;1.40;;
50900;SDS011;36879;51.416;6.678;2022-10-22T15:08:10;3.33;;;0.80;;
50900;SDS011;36879;51.416;6.678;2022-10-22T15:10:36;3.33;;;1.50;;
50900;SDS011;36879;51.416;6.678;2022-10-22T15:13:02;6.07;;;1.17;;
50900;SDS011;36879;51.416;6.678;2022-10-22T15:15:28;3.13;;;0.77;;
50900;SDS011;36879;51.416;6.678;2022-10-22T15:17:54;4.50;;;1.00;;
50900;SDS011;36879;51.416;6.678;2022-10-22T15:20:20;3.03;;;1.08;;
50900;SDS011;36879;51.416;6.678;2022-10-22T15:22:46;5.35;;;1.17;;
50900;SDS011;36879;51.416;6.678;2022-10-22T15:25:12;4.70;;;1.85;;
50900;SDS011;36879;51.416;6.678;2022-10-22T15:27:38;4.55;;;1.02;;
50900;SDS011;36879;51.416;6.678;2022-10-22T15:30:05;3.55;;;1.88;;
50900;SDS011;36879;51.416;6.678;2022-10-22T15:32:31;2.45;;;1.10;;
50900;SDS011;36879;51.416;6.678;2022-10-22T15:34:58;5.22;;;1.23;;
50900;SDS011;36879;51.416;6.678;2022-10-22T15:37:25;2.70;;;1.13;;
50900;SDS011;36879;51.416;6.678;2022-10-22T15:39:51;5.30;;;1.30;;
50900;SDS011;36879;51.416;6.678;2022-10-22T15:42:17;4.97;;;1.00;;
50900;SDS011;36879;51.416;6.678;2022-10-22T15:44:43;5.55;;;1.52;;
50900;SDS011;36879;51.416;6.678;2022-10-22T15:47:09;3.45;;;1.20;;
50900;SDS011;36879;51.416;6.678;2022-10-22T15:49:36;2.33;;;1.10;;
50900;SDS011;36879;51.416;6.678;2022-10-22T15:52:03;2.63;;;1.10;;
50900;SDS011;36879;51.416;6.678;2022-10-22T15:54:29;3.50;;;0.93;;
50900;SDS011;36879;51.416;6.678;2022-10-22T15:56:56;5.78;;;1.80;;
50900;SDS011;36879;51.416;6.678;2022-10-22T15:59:22;3.50;;;1.20;;
50900;SDS011;36879;51.416;6.678;2022-10-22T16:01:49;3.00;;;0.98;;
50900;SDS011;36879;51.416;6.678;2022-10-22T16:04:15;5.40;;;1.42;;
50900;SDS011;36879;51.416;6.678;2022-10-22T16:06:46;6.20;;;1.70;;
50900;SDS011;36879;51.416;6.678;2022-10-22T16:09:13;4.63;;;2.13;;
50900;SDS011;36879;51.416;6.678;2022-10-22T16:11:40;1.85;;;1.17;;
50900;SDS011;36879;51.416;6.678;2022-10-22T16:14:06;7.93;;;1.58;;
50900;SDS011;36879;51.416;6.678;2022-10-22T16:16:33;5.65;;;1.63;;
50900;SDS011;36879;51.416;6.678;2022-10-22T16:19:00;3.78;;;1.33;;
50900;SDS011;36879;51.416;6.678;2022-10-22T16:21:26;2.45;;;1.40;;
50900;SDS011;36879;51.416;6.678;2022-10-22T16:23:53;6.93;;;1.58;;
50900;SDS011;36879;51.416;6.678;2022-10-22T16:26:19;11.65;;;1.80;;
50900;SDS011;36879;51.416;6.678;2022-10-22T16:28:45;4.80;;;1.55;;